createdAt,value
2023-04-11T10:07:10.995Z,17.58
2023-04-11T10:09:42.489Z,17.59
2023-04-11T10:12:10.792Z,17.57
2023-04-11T10:14:48.065Z,17.57
2023-04-11T10:17:22.601Z,17.59
2023-04-11T10:19:51.884Z,17.61
2023-04-11T10:22:38.303Z,17.62
2023-04-11T10:25:23.324Z,17.60
2023-04-11T10:27:54.574Z,17.61
2023-04-11T10:30:42.446Z,17.65
2023-04-11T10:33:26.367Z,17.65
2023-04-11T10:36:01.229Z,17.68
2023-04-11T10:38:52.221Z,17.68
2023-04-11T10:41:26.616Z,17.67
2023-04-11T10:43:56.427Z,17.63
2023-04-11T10:46:25.396Z,17.61
2023-04-11T10:50:04.397Z,17.63
2023-04-11T10:52:32.681Z,17.63
2023-04-11T10:55:00.952Z,17.61
2023-04-11T10:57:33.792Z,17.60
2023-04-11T11:00:02.284Z,17.61
2023-04-11T11:02:40.981Z,17.63
2023-04-11T11:05:22.650Z,17.64
2023-04-11T11:07:51.310Z,17.65
2023-04-11T11:10:39.187Z,17.68
2023-04-11T11:13:10.332Z,17.70
2023-04-11T11:15:41.463Z,17.70
2023-04-11T11:18:09.925Z,17.71
2023-04-11T11:20:38.196Z,17.72
2023-04-11T11:23:07.326Z,17.70
2023-04-11T11:25:35.293Z,17.72
2023-04-11T11:28:05.582Z,17.70
2023-04-11T11:30:38.080Z,17.71
2023-04-11T11:33:16.939Z,17.72
2023-04-11T11:35:58.202Z,17.74
2023-04-11T11:38:31.876Z,17.74
2023-04-11T11:41:07.029Z,17.74
2023-04-11T11:43:50.153Z,17.75
2023-04-11T11:46:24.002Z,17.73
2023-04-11T11:51:53.474Z,17.75
2023-04-11T11:54:23.500Z,17.75
2023-04-11T11:56:52.002Z,17.75
2023-04-11T12:02:44.972Z,17.76
2023-04-11T12:05:13.788Z,17.76
2023-04-11T12:07:44.037Z,17.73
2023-04-11T12:10:19.029Z,17.74
2023-04-11T12:12:53.450Z,17.75
2023-04-11T12:15:24.105Z,17.75
2023-04-11T12:17:54.228Z,17.76
2023-04-11T12:20:37.742Z,17.75
2023-04-11T12:23:12.581Z,17.75
2023-04-11T12:25:41.754Z,17.75
2023-04-11T12:28:09.881Z,17.74
2023-04-11T12:30:38.542Z,17.73
2023-04-11T12:33:09.977Z,17.72
2023-04-11T12:35:44.155Z,17.75
2023-04-11T12:38:14.998Z,17.75
2023-04-11T12:40:46.443Z,17.75
2023-04-11T12:43:14.526Z,17.76
2023-04-11T12:45:43.833Z,17.77
2023-04-11T12:48:13.377Z,17.78
2023-04-11T12:50:41.324Z,17.79
2023-04-11T12:53:09.775Z,17.80
2023-04-11T12:55:40.481Z,17.80
2023-04-11T12:58:09.616Z,17.80
2023-04-11T13:00:39.831Z,17.79
2023-04-11T13:03:08.320Z,17.79
2023-04-11T13:05:38.587Z,17.78
2023-04-11T13:08:12.327Z,17.78
2023-04-11T13:10:40.563Z,17.77
2023-04-11T13:13:17.955Z,17.76
2023-04-11T13:15:47.754Z,17.78
2023-04-11T13:18:18.702Z,17.76
2023-04-11T13:20:48.516Z,17.74
2023-04-11T13:23:17.484Z,17.73
2023-04-11T13:25:45.979Z,17.73
2023-04-11T13:28:14.072Z,17.72
2023-04-11T13:30:42.516Z,17.72
2023-04-11T13:33:10.953Z,17.70
2023-04-11T13:36:00.397Z,17.69
2023-04-11T13:38:36.984Z,17.67
2023-04-11T13:41:16.329Z,17.67
2023-04-11T13:43:51.030Z,17.67
2023-04-11T13:46:19.935Z,17.68
2023-04-11T13:48:50.966Z,17.67
2023-04-11T13:51:20.175Z,17.71
2023-04-11T13:53:55.477Z,17.73
2023-04-11T14:04:19.344Z,17.75
2023-04-11T14:07:13.060Z,17.75
2023-04-11T14:10:36.621Z,17.75
2023-04-11T14:13:36.525Z,17.75
2023-04-11T14:19:40.839Z,17.75
2023-04-11T14:22:30.033Z,17.75
2023-04-11T14:25:08.671Z,17.75
2023-04-11T14:27:40.723Z,17.75
2023-04-11T14:30:14.340Z,17.76
2023-04-11T14:35:31.654Z,17.74
2023-04-11T14:38:20.729Z,17.75
2023-04-11T14:41:15.244Z,17.76
2023-04-11T14:44:07.823Z,17.76
2023-04-11T14:46:57.987Z,17.68
2023-04-11T14:49:43.349Z,17.62
2023-04-11T14:52:16.416Z,17.68
2023-04-11T14:54:52.041Z,17.71
2023-04-11T14:57:25.824Z,17.72
2023-04-11T15:00:06.351Z,17.73
2023-04-11T15:02:47.768Z,17.74
2023-04-11T15:09:24.008Z,17.72
2023-04-11T15:20:11.431Z,17.71
2023-04-11T15:38:13.905Z,17.72
2023-04-11T15:40:44.178Z,17.73
2023-04-11T15:43:17.561Z,17.73
2023-04-11T15:45:52.372Z,17.74
2023-04-11T15:48:21.099Z,17.74
2023-04-11T15:50:51.012Z,17.73
2023-04-11T15:53:20.944Z,17.73
2023-04-11T15:55:57.185Z,17.72
2023-04-11T15:58:30.529Z,17.69
2023-04-11T16:01:02.740Z,17.62
2023-04-11T16:03:32.760Z,17.55
2023-04-11T16:06:01.881Z,17.55
2023-04-11T16:08:35.866Z,17.60
2023-04-11T16:11:07.634Z,17.65
2023-04-11T16:13:41.967Z,17.70
2023-04-11T16:16:10.445Z,17.72
2023-04-11T16:18:57.484Z,17.73
2023-04-11T16:21:26.541Z,17.74
2023-04-11T16:23:55.667Z,17.75
2023-04-11T16:26:25.775Z,17.76
2023-04-11T16:29:05.595Z,17.76
2023-04-11T16:31:46.882Z,17.75
2023-04-11T16:34:20.785Z,17.76
2023-04-11T16:36:55.127Z,17.77
2023-04-11T16:39:45.503Z,17.76
2023-04-11T16:42:17.238Z,17.75
2023-04-11T16:44:52.059Z,17.74
2023-04-11T16:47:23.611Z,17.73
2023-04-11T16:49:56.332Z,17.73
2023-04-11T16:52:34.941Z,17.73
2023-04-11T16:55:03.824Z,17.75
2023-04-11T16:57:41.738Z,17.75
2023-04-11T17:00:21.991Z,17.77
2023-04-11T17:03:06.997Z,17.75
2023-04-11T17:05:41.372Z,17.75
2023-04-11T17:08:16.940Z,17.74
2023-04-11T17:10:47.049Z,17.74
2023-04-11T17:13:28.132Z,17.74
2023-04-11T17:16:09.478Z,17.74
2023-04-11T17:19:18.047Z,17.74
2023-04-11T17:21:55.472Z,17.74
2023-04-11T17:24:28.438Z,17.74
2023-04-11T17:27:27.195Z,17.73
2023-04-11T17:30:03.128Z,17.73
2023-04-11T17:32:38.207Z,17.74
2023-04-11T17:35:34.388Z,17.73
2023-04-11T17:38:10.479Z,17.73
2023-04-11T17:40:47.173Z,17.73
2023-04-11T17:43:20.549Z,17.74
2023-04-11T17:45:54.911Z,17.74
2023-04-11T17:48:24.217Z,17.74
2023-04-11T17:51:10.427Z,17.74
2023-04-11T17:53:48.476Z,17.74
2023-04-11T17:56:17.987Z,17.74
2023-04-11T17:59:11.666Z,17.76
2023-04-11T18:02:27.399Z,17.76
2023-04-11T18:08:46.735Z,17.76
2023-04-11T18:11:20.040Z,17.76
2023-04-11T18:13:53.962Z,17.76
2023-04-11T18:16:31.934Z,17.75
2023-04-11T18:19:39.753Z,17.75
2023-04-11T18:22:12.433Z,17.74
2023-04-11T18:24:45.413Z,17.74
2023-04-11T18:27:16.806Z,17.75
2023-04-11T18:29:51.832Z,17.75
2023-04-11T18:32:30.030Z,17.75
2023-04-11T18:35:23.644Z,17.75
2023-04-11T18:38:30.329Z,17.75
2023-04-11T18:41:20.279Z,17.75
2023-04-11T18:44:17.418Z,17.73
2023-04-11T18:46:51.353Z,17.74
2023-04-11T18:49:28.004Z,17.73
2023-04-11T18:52:06.458Z,17.74
2023-04-11T18:55:01.181Z,17.74
2023-04-11T18:57:34.367Z,17.75
2023-04-11T19:00:19.700Z,17.75
2023-04-11T19:02:52.706Z,17.74
2023-04-11T19:05:29.406Z,17.74
2023-04-11T19:08:00.143Z,17.74
2023-04-11T19:14:23.622Z,17.72
2023-04-11T19:16:58.633Z,17.73
2023-04-11T19:19:31.544Z,17.72
2023-04-11T19:22:02.443Z,17.71
2023-04-11T19:24:35.055Z,17.72
2023-04-11T19:27:08.959Z,17.72
2023-04-11T19:33:11.418Z,17.73
2023-04-11T19:35:48.702Z,17.71
2023-04-11T19:38:22.633Z,17.71
2023-04-11T19:40:56.980Z,17.71
2023-04-11T19:43:39.406Z,17.70
2023-04-11T19:46:08.544Z,17.70
2023-04-11T19:48:37.884Z,17.71
2023-04-11T19:55:12.928Z,17.70
2023-04-11T19:58:28.212Z,17.69
2023-04-11T20:01:25.438Z,17.69
2023-04-11T20:18:47.772Z,17.67
2023-04-11T20:22:29.122Z,17.66
2023-04-11T20:29:05.922Z,17.65
2023-04-11T20:31:34.648Z,17.65
2023-04-11T20:34:06.006Z,17.64
2023-04-11T20:36:37.732Z,17.64
2023-04-11T20:39:08.974Z,17.65
2023-04-11T20:42:09.894Z,17.66
2023-04-11T20:45:06.994Z,17.60
2023-04-11T20:47:43.280Z,17.64
2023-04-11T20:50:24.556Z,17.64
2023-04-11T20:53:17.171Z,17.63
2023-04-11T20:55:46.594Z,17.63
2023-04-11T20:58:26.839Z,17.63
2023-04-11T21:01:10.261Z,17.63
2023-04-11T21:04:12.226Z,17.62
2023-04-11T21:06:44.165Z,17.61
2023-04-11T21:09:39.307Z,17.61
2023-04-11T21:12:24.095Z,17.61
2023-04-11T21:18:56.699Z,17.60
2023-04-11T21:21:42.360Z,17.59
2023-04-11T21:24:31.036Z,17.61
2023-04-11T21:27:04.717Z,17.60
2023-04-11T21:29:35.144Z,17.59
2023-04-11T21:32:26.260Z,17.59
2023-04-11T21:38:08.635Z,17.59
2023-04-11T21:40:48.279Z,17.60
2023-04-11T21:43:18.977Z,17.60
2023-04-11T21:45:53.868Z,17.59
2023-04-11T21:48:53.063Z,17.58
2023-04-11T21:51:29.235Z,17.58
2023-04-11T21:54:02.438Z,17.58
2023-04-11T21:56:37.459Z,17.58
2023-04-11T21:59:12.813Z,17.58
2023-04-11T22:01:47.739Z,17.57
2023-04-11T22:04:30.204Z,17.58
2023-04-11T22:07:37.736Z,17.57
2023-04-11T22:10:23.327Z,17.57
2023-04-11T22:12:57.251Z,17.56
2023-04-11T22:15:26.859Z,17.56
2023-04-11T22:17:58.858Z,17.56
2023-04-11T22:20:28.063Z,17.57
2023-04-11T22:22:59.475Z,17.57
2023-04-11T22:25:36.922Z,17.56
2023-04-11T22:28:09.550Z,17.56
2023-04-11T22:30:52.857Z,17.55
2023-04-11T22:33:22.340Z,17.55
2023-04-11T22:36:04.579Z,17.55
2023-04-11T22:38:46.275Z,17.55
2023-04-11T22:41:28.374Z,17.54
2023-04-11T22:43:58.220Z,17.55
2023-04-11T22:46:27.531Z,17.55
2023-04-11T22:48:58.055Z,17.55
2023-04-11T22:51:30.164Z,17.55
2023-04-11T22:53:59.598Z,17.54
2023-04-11T22:56:30.389Z,17.54
2023-04-11T22:58:58.902Z,17.53
